Time;durP1;ratioP1;P1;durP2;ratioP2;P2;SDS_P1;SDS_P2;PMS_P1;PMS_P2;Temp;Humidity;BMP_temperature;BMP_pressure;BME280_temperature;BME280_humidity;BME280_pressure;Samples;Min_cycle;Max_cycle;Signal;HPM_P1;HPM_P2
2022/07/29 00:00:46;;;;;;;;;;;24.80;63.90;;;;;;4921337;29;20311;-96
2022/07/29 00:03:11;;;;;;;;;;;24.60;62.70;;;;;;4921311;29;20341;-95
2022/07/29 00:05:41;;;;;;;;;;;24.30;62.20;;;;;;4921589;29;20367;-95
2022/07/29 00:08:07;;;;;;;;;;;24.00;63.70;;;;;;4920985;29;19941;-95
2022/07/29 00:10:32;;;;;;;;;;;23.80;65.80;;;;;;4921193;29;19946;-96
2022/07/29 00:12:58;;;;;;;;;;;23.50;66.10;;;;;;4920856;29;20000;-95
2022/07/29 00:15:24;;;;;;;;;;;23.20;67.20;;;;;;4920832;29;20416;-94
2022/07/29 00:17:49;;;;;;;;;;;23.00;68.90;;;;;;4920761;29;19999;-94
2022/07/29 00:20:15;;;;;;;;;;;22.80;70.50;;;;;;4920761;29;20382;-94
2022/07/29 00:22:40;;;;;;;;;;;22.80;71.00;;;;;;4920753;29;20376;-94
2022/07/29 00:25:07;;;;;;;;;;;22.60;70.60;;;;;;4920636;29;19940;-94
2022/07/29 00:27:33;;;;;;;;;;;22.50;70.50;;;;;;4935131;29;19960;-94
2022/07/29 00:29:58;;;;;;;;;;;22.50;71.00;;;;;;4920903;29;19943;-95
2022/07/29 00:32:24;;;;;;;;;;;22.50;71.20;;;;;;4920528;29;20501;-94
2022/07/29 00:37:33;;;;;;;;;;;22.30;71.70;;;;;;4920204;29;19969;-94
2022/07/29 00:39:59;;;;;;;;;;;22.30;72.30;;;;;;4920368;29;20061;-95
2022/07/29 00:42:24;;;;;;;;;;;22.30;72.80;;;;;;4920535;29;19961;-94
2022/07/29 00:44:50;;;;;;;;;;;22.20;72.90;;;;;;4920571;29;20035;-95
2022/07/29 00:47:15;;;;;;;;;;;22.20;73.20;;;;;;4920454;29;19985;-95
2022/07/29 00:49:41;;;;;;;;;;;22.20;73.90;;;;;;4919853;29;19948;-96
2022/07/29 00:52:07;;;;;;;;;;;22.10;73.70;;;;;;4920383;29;19975;-95
2022/07/29 00:54:34;;;;;;;;;;;22.10;74.30;;;;;;4920158;29;20416;-96
2022/07/29 00:56:59;;;;;;;;;;;22.10;75.20;;;;;;4920198;29;20004;-95
2022/07/29 00:59:26;;;;;;;;;;;22.10;76.50;;;;;;4920248;29;20417;-95
2022/07/29 01:01:52;;;;;;;;;;;22.10;77.60;;;;;;4920135;29;20000;-95
2022/07/29 01:04:18;;;;;;;;;;;22.10;78.60;;;;;;4919994;29;19945;-95
2022/07/29 01:06:44;;;;;;;;;;;21.90;78.50;;;;;;4918920;29;20032;-95
2022/07/29 01:09:10;;;;;;;;;;;21.80;81.80;;;;;;4919960;29;20399;-95
2022/07/29 01:11:36;;;;;;;;;;;21.60;81.20;;;;;;4919870;29;19939;-94
2022/07/29 01:14:03;;;;;;;;;;;21.50;81.20;;;;;;4920037;29;20307;-95
2022/07/29 01:16:33;;;;;;;;;;;21.50;82.20;;;;;;4919791;29;19996;-95
2022/07/29 01:19:04;;;;;;;;;;;21.50;83.10;;;;;;4934146;29;20309;-95
2022/07/29 01:21:30;;;;;;;;;;;21.60;83.50;;;;;;4919692;29;20425;-95
2022/07/29 01:24:15;;;;;;;;;;;21.70;82.90;;;;;;4920195;29;19942;-95
2022/07/29 01:26:47;;;;;;;;;;;21.80;82.50;;;;;;4919637;29;19986;-95
2022/07/29 01:29:22;;;;;;;;;;;21.80;81.70;;;;;;4919768;29;19977;-95
2022/07/29 01:31:56;;;;;;;;;;;21.80;80.60;;;;;;4919789;29;19947;-95
2022/07/29 01:34:23;;;;;;;;;;;21.70;79.10;;;;;;4919380;29;20324;-96
2022/07/29 01:37:00;;;;;;;;;;;21.60;78.90;;;;;;4919405;29;19966;-95
2022/07/29 01:39:29;;;;;;;;;;;21.60;79.50;;;;;;4919521;29;19962;-95
2022/07/29 01:42:13;;;;;;;;;;;21.50;79.80;;;;;;4919494;29;19939;-95
2022/07/29 01:45:00;;;;;;;;;;;21.30;80.40;;;;;;4919289;29;19947;-95
2022/07/29 01:47:30;;;;;;;;;;;21.30;80.80;;;;;;4919145;29;20498;-95
2022/07/29 01:49:58;;;;;;;;;;;21.20;80.40;;;;;;4919460;29;19945;-95
2022/07/29 01:52:27;;;;;;;;;;;21.20;80.20;;;;;;4919107;29;19947;-95
2022/07/29 01:54:55;;;;;;;;;;;21.20;80.10;;;;;;4919321;29;19945;-95
2022/07/29 01:57:24;;;;;;;;;;;21.20;80.70;;;;;;4933422;29;20032;-95
2022/07/29 01:59:50;;;;;;;;;;;21.20;81.10;;;;;;4917042;29;19990;-95
2022/07/29 02:02:17;;;;;;;;;;;21.20;81.60;;;;;;4919038;29;19940;-95
2022/07/29 02:04:45;;;;;;;;;;;21.10;82.20;;;;;;4919388;29;19972;-95
2022/07/29 02:07:13;;;;;;;;;;;21.10;82.70;;;;;;4919101;29;20390;-96
2022/07/29 02:09:39;;;;;;;;;;;21.10;82.90;;;;;;4919358;29;19978;-95
2022/07/29 02:12:06;;;;;;;;;;;21.10;82.90;;;;;;4918971;29;19952;-96
2022/07/29 02:14:34;;;;;;;;;;;21.10;83.00;;;;;;4919259;29;20463;-95
2022/07/29 02:17:00;;;;;;;;;;;21.00;83.00;;;;;;4918670;29;20039;-95
2022/07/29 02:19:27;;;;;;;;;;;21.00;82.90;;;;;;4918942;29;19967;-95
2022/07/29 02:21:54;;;;;;;;;;;21.10;83.00;;;;;;4918741;29;19938;-95
2022/07/29 02:24:20;;;;;;;;;;;21.30;80.90;;;;;;4918822;29;19942;-95
2022/07/29 02:26:47;;;;;;;;;;;21.40;78.80;;;;;;4918760;29;19980;-95
2022/07/29 02:29:13;;;;;;;;;;;21.60;78.30;;;;;;4918547;29;20456;-95
2022/07/29 02:31:40;;;;;;;;;;;21.70;78.50;;;;;;4933029;29;20036;-95
2022/07/29 02:34:08;;;;;;;;;;;21.70;78.50;;;;;;4918699;29;19946;-95
2022/07/29 02:36:34;;;;;;;;;;;21.60;78.00;;;;;;4918290;29;19999;-95
2022/07/29 02:39:00;;;;;;;;;;;21.50;77.60;;;;;;4918480;29;19961;-95
2022/07/29 02:41:33;;;;;;;;;;;21.40;77.90;;;;;;4918571;29;19951;-95
2022/07/29 02:44:03;;;;;;;;;;;21.40;77.90;;;;;;4918836;29;19938;-95
2022/07/29 02:46:33;;;;;;;;;;;21.40;77.30;;;;;;4918003;29;19938;-95
2022/07/29 02:49:02;;;;;;;;;;;21.40;76.80;;;;;;4918438;29;20454;-95
2022/07/29 02:51:32;;;;;;;;;;;21.50;76.80;;;;;;4918125;29;19941;-95
2022/07/29 02:54:00;;;;;;;;;;;21.50;76.60;;;;;;4918887;29;19950;-95
2022/07/29 02:56:27;;;;;;;;;;;21.50;76.50;;;;;;4918032;29;19945;-95
2022/07/29 02:58:58;;;;;;;;;;;21.50;76.90;;;;;;4918213;29;19969;-96
2022/07/29 03:01:25;;;;;;;;;;;21.40;77.20;;;;;;4917974;29;19951;-95
2022/07/29 03:03:52;;;;;;;;;;;21.30;77.50;;;;;;4918491;29;19995;-95
2022/07/29 03:06:19;;;;;;;;;;;21.40;77.80;;;;;;4917852;29;19951;-95
2022/07/29 03:08:45;;;;;;;;;;;21.30;78.50;;;;;;4917788;29;20011;-95
2022/07/29 03:11:12;;;;;;;;;;;21.30;78.50;;;;;;4917975;29;20019;-95
2022/07/29 03:13:37;;;;;;;;;;;21.20;78.20;;;;;;4917819;29;19938;-96
2022/07/29 03:16:04;;;;;;;;;;;21.10;78.30;;;;;;4918004;29;20278;-95
2022/07/29 03:18:30;;;;;;;;;;;20.90;78.40;;;;;;4918041;29;20037;-95
2022/07/29 03:20:56;;;;;;;;;;;20.90;79.00;;;;;;4917962;29;20377;-95
2022/07/29 03:23:23;;;;;;;;;;;20.90;79.20;;;;;;4918253;29;20031;-95
2022/07/29 03:25:49;;;;;;;;;;;21.00;78.90;;;;;;4917684;29;20285;-95
2022/07/29 03:28:15;;;;;;;;;;;21.00;79.00;;;;;;4917941;29;19939;-95
2022/07/29 03:30:40;;;;;;;;;;;21.10;78.80;;;;;;4917902;29;19958;-94
2022/07/29 03:33:06;;;;;;;;;;;21.10;78.60;;;;;;4918188;29;20028;-94
2022/07/29 03:35:31;;;;;;;;;;;21.00;78.60;;;;;;4917511;29;20058;-95
2022/07/29 03:37:58;;;;;;;;;;;20.90;78.90;;;;;;4917859;29;19946;-95
2022/07/29 03:40:30;;;;;;;;;;;20.90;79.20;;;;;;4917491;29;19968;-95
2022/07/29 03:42:56;;;;;;;;;;;20.80;79.60;;;;;;4932108;29;19946;-95
2022/07/29 03:45:22;;;;;;;;;;;20.80;80.10;;;;;;4917751;29;19938;-95
2022/07/29 03:47:50;;;;;;;;;;;20.70;80.40;;;;;;4917518;29;20073;-95
2022/07/29 03:50:16;;;;;;;;;;;20.80;80.50;;;;;;4917699;29;19976;-96
2022/07/29 03:52:42;;;;;;;;;;;20.80;80.60;;;;;;4917706;29;19944;-95
2022/07/29 03:55:08;;;;;;;;;;;20.70;80.60;;;;;;4917430;29;19941;-96
2022/07/29 03:57:34;;;;;;;;;;;20.70;80.40;;;;;;4917227;29;19970;-95
2022/07/29 04:00:01;;;;;;;;;;;20.70;80.60;;;;;;4917587;29;19959;-95
2022/07/29 04:02:27;;;;;;;;;;;20.70;80.90;;;;;;4917349;29;19964;-95
2022/07/29 04:04:52;;;;;;;;;;;20.70;81.30;;;;;;4917620;29;20408;-94
2022/07/29 04:07:18;;;;;;;;;;;20.70;81.70;;;;;;4917324;29;20037;-95
2022/07/29 04:09:43;;;;;;;;;;;20.70;81.30;;;;;;4917906;29;19980;-95
2022/07/29 04:12:09;;;;;;;;;;;20.80;80.90;;;;;;4917255;29;20089;-96
2022/07/29 04:14:35;;;;;;;;;;;20.90;80.90;;;;;;4917805;29;19945;-95
2022/07/29 04:17:01;;;;;;;;;;;20.90;80.40;;;;;;4917273;29;19948;-96
2022/07/29 04:19:27;;;;;;;;;;;20.90;79.70;;;;;;4917435;29;19958;-95
2022/07/29 04:21:53;;;;;;;;;;;20.80;79.40;;;;;;4917291;29;19943;-95
2022/07/29 04:24:18;;;;;;;;;;;20.80;79.90;;;;;;4919439;29;20007;-95
2022/07/29 04:26:45;;;;;;;;;;;20.80;79.40;;;;;;4920501;29;19952;-95
2022/07/29 04:29:11;;;;;;;;;;;20.90;79.20;;;;;;4920921;29;20084;-95
2022/07/29 04:31:37;;;;;;;;;;;21.00;78.70;;;;;;4920593;29;19952;-96
2022/07/29 04:34:03;;;;;;;;;;;21.30;77.60;;;;;;4920843;29;19938;-95
2022/07/29 04:36:28;;;;;;;;;;;21.40;77.20;;;;;;4920452;29;19964;-95
2022/07/29 04:38:54;;;;;;;;;;;21.50;77.30;;;;;;4920696;29;20026;-95
2022/07/29 04:41:20;;;;;;;;;;;21.50;77.10;;;;;;4920418;29;19954;-95
2022/07/29 04:43:45;;;;;;;;;;;21.60;75.90;;;;;;4920887;29;19997;-95
2022/07/29 04:46:11;;;;;;;;;;;21.80;75.10;;;;;;4920628;29;19953;-95
2022/07/29 04:48:37;;;;;;;;;;;21.80;74.90;;;;;;4945332;23;19994;-95
2022/07/29 04:51:02;;;;;;;;;;;21.90;75.10;;;;;;4939236;29;19998;-95
2022/07/29 04:53:28;;;;;;;;;;;21.90;75.10;;;;;;4939290;29;19946;-95
2022/07/29 04:55:53;;;;;;;;;;;22.00;75.80;;;;;;4938933;29;19942;-94
2022/07/29 04:58:19;;;;;;;;;;;22.00;77.10;;;;;;4939003;29;19951;-95
2022/07/29 05:00:45;;;;;;;;;;;21.90;76.40;;;;;;4938979;29;19999;-96
2022/07/29 05:03:10;;;;;;;;;;;22.00;76.30;;;;;;4939588;29;19936;-95
2022/07/29 05:05:36;;;;;;;;;;;22.00;75.20;;;;;;4939007;29;20382;-95
2022/07/29 05:08:01;;;;;;;;;;;22.10;75.40;;;;;;4939134;29;19942;-95
2022/07/29 05:10:28;;;;;;;;;;;22.20;75.10;;;;;;4938883;29;19942;-95
2022/07/29 05:12:54;;;;;;;;;;;22.20;74.60;;;;;;4938900;29;20008;-95
2022/07/29 05:15:19;;;;;;;;;;;22.30;74.90;;;;;;4938447;29;19951;-95
2022/07/29 05:17:45;;;;;;;;;;;22.30;75.90;;;;;;4938607;29;19940;-96
2022/07/29 05:20:10;;;;;;;;;;;22.30;75.90;;;;;;4938547;29;19988;-95
2022/07/29 05:22:36;;;;;;;;;;;22.20;74.80;;;;;;4937329;29;19965;-96
2022/07/29 05:25:02;;;;;;;;;;;22.30;74.70;;;;;;4938518;29;19943;-95
2022/07/29 05:27:27;;;;;;;;;;;22.30;75.00;;;;;;4938462;29;20343;-95
2022/07/29 05:29:53;;;;;;;;;;;22.50;75.20;;;;;;4939054;29;19951;-95
2022/07/29 05:32:19;;;;;;;;;;;22.60;74.90;;;;;;4938461;29;19969;-95
2022/07/29 05:34:44;;;;;;;;;;;22.80;75.00;;;;;;4938336;29;19947;-95
2022/07/29 05:37:10;;;;;;;;;;;22.80;75.80;;;;;;4938620;29;20045;-96
2022/07/29 05:39:36;;;;;;;;;;;22.70;75.60;;;;;;4938566;29;19989;-95
2022/07/29 05:42:01;;;;;;;;;;;22.60;75.70;;;;;;4938672;29;19998;-95
2022/07/29 05:44:27;;;;;;;;;;;22.70;75.20;;;;;;4920955;29;19943;-95
2022/07/29 05:46:53;;;;;;;;;;;22.70;75.20;;;;;;4937942;29;20030;-95
2022/07/29 05:49:18;;;;;;;;;;;22.80;76.70;;;;;;4938066;29;19996;-95
2022/07/29 05:51:44;;;;;;;;;;;22.70;75.80;;;;;;4938080;29;19942;-96
2022/07/29 05:54:10;;;;;;;;;;;22.80;76.40;;;;;;4938066;29;19942;-95
2022/07/29 05:56:36;;;;;;;;;;;22.80;75.80;;;;;;4936591;29;19949;-96
2022/07/29 05:59:03;;;;;;;;;;;22.80;75.60;;;;;;4937776;29;19938;-96
2022/07/29 06:01:28;;;;;;;;;;;22.90;76.40;;;;;;4937504;29;19949;-95
2022/07/29 06:03:54;;;;;;;;;;;23.00;76.40;;;;;;4937820;29;19948;-95
2022/07/29 06:06:19;;;;;;;;;;;23.00;75.30;;;;;;4932528;29;20021;-95
2022/07/29 06:08:45;;;;;;;;;;;23.10;74.30;;;;;;4937745;29;19948;-96
2022/07/29 06:11:10;;;;;;;;;;;23.10;74.40;;;;;;4937712;29;19949;-95
2022/07/29 06:13:36;;;;;;;;;;;23.20;75.40;;;;;;4937960;29;20000;-95
2022/07/29 06:16:02;;;;;;;;;;;23.20;74.10;;;;;;4937629;29;19939;-95
2022/07/29 06:18:27;;;;;;;;;;;23.30;74.80;;;;;;4937770;29;19947;-95
2022/07/29 06:20:53;;;;;;;;;;;23.40;74.10;;;;;;4937553;29;20376;-95
2022/07/29 06:23:19;;;;;;;;;;;23.40;73.80;;;;;;4937521;29;19951;-94
2022/07/29 06:25:45;;;;;;;;;;;23.50;73.20;;;;;;4937603;29;19946;-94
2022/07/29 06:28:10;;;;;;;;;;;23.60;72.80;;;;;;4937419;29;20357;-96
2022/07/29 06:30:36;;;;;;;;;;;23.70;72.60;;;;;;4937902;29;19954;-95
2022/07/29 06:33:04;;;;;;;;;;;23.70;71.50;;;;;;4936913;29;20518;-95
2022/07/29 06:35:29;;;;;;;;;;;23.70;72.00;;;;;;4937660;29;19960;-95
2022/07/29 06:37:55;;;;;;;;;;;23.80;72.60;;;;;;4935702;29;19951;-96
2022/07/29 06:43:05;;;;;;;;;;;23.90;71.90;;;;;;4937577;29;20332;-95
2022/07/29 06:45:34;;;;;;;;;;;24.00;72.10;;;;;;4937374;29;20009;-95
2022/07/29 06:48:00;;;;;;;;;;;24.10;70.10;;;;;;4936819;29;19973;-95
2022/07/29 06:50:26;;;;;;;;;;;24.20;70.30;;;;;;4937170;29;20023;-95
2022/07/29 06:52:51;;;;;;;;;;;24.30;70.40;;;;;;4937013;29;19951;-95
2022/07/29 06:55:19;;;;;;;;;;;24.30;70.10;;;;;;4937252;29;19953;-95
2022/07/29 06:57:45;;;;;;;;;;;24.40;69.50;;;;;;4937081;29;19950;-95
2022/07/29 07:00:11;;;;;;;;;;;24.50;69.00;;;;;;4936983;29;20002;-94
2022/07/29 07:02:36;;;;;;;;;;;24.60;68.50;;;;;;4937294;29;19980;-96
2022/07/29 07:05:02;;;;;;;;;;;24.60;68.00;;;;;;4936820;29;20396;-96
2022/07/29 07:07:27;;;;;;;;;;;24.70;68.50;;;;;;4935475;29;20354;-95
2022/07/29 07:09:53;;;;;;;;;;;24.80;68.90;;;;;;4931429;29;20015;-95
2022/07/29 07:12:18;;;;;;;;;;;24.90;69.00;;;;;;4936844;29;19968;-95
2022/07/29 07:14:44;;;;;;;;;;;25.00;67.30;;;;;;4936957;29;19944;-95
2022/07/29 07:17:09;;;;;;;;;;;25.20;66.10;;;;;;4935508;29;19950;-95
2022/07/29 07:19:35;;;;;;;;;;;25.40;64.70;;;;;;4936571;29;20335;-95
2022/07/29 07:22:01;;;;;;;;;;;25.50;63.30;;;;;;4936653;29;20039;-94
2022/07/29 07:24:26;;;;;;;;;;;25.50;62.90;;;;;;4936442;29;19993;-95
2022/07/29 07:26:52;;;;;;;;;;;25.50;62.60;;;;;;4936941;29;19944;-94
2022/07/29 07:29:17;;;;;;;;;;;25.60;64.30;;;;;;4936465;29;19983;-94
2022/07/29 07:31:43;;;;;;;;;;;25.70;65.10;;;;;;4936393;29;20000;-94
2022/07/29 07:34:09;;;;;;;;;;;25.70;64.40;;;;;;4936487;29;19944;-94
2022/07/29 07:36:34;;;;;;;;;;;25.70;63.70;;;;;;4936372;29;19969;-95
2022/07/29 07:39:00;;;;;;;;;;;25.80;63.70;;;;;;4935146;29;20407;-95
2022/07/29 07:41:26;;;;;;;;;;;25.80;63.70;;;;;;4936431;29;19942;-95
2022/07/29 07:43:51;;;;;;;;;;;25.90;63.50;;;;;;4935417;29;19956;-95
2022/07/29 07:46:17;;;;;;;;;;;25.90;62.60;;;;;;4936456;29;19950;-96
2022/07/29 07:48:42;;;;;;;;;;;26.00;62.00;;;;;;4936230;29;20040;-95
2022/07/29 07:51:08;;;;;;;;;;;26.10;61.40;;;;;;4936485;29;19945;-95
2022/07/29 07:53:34;;;;;;;;;;;26.20;61.30;;;;;;4936461;29;20040;-95
2022/07/29 07:56:00;;;;;;;;;;;26.20;61.00;;;;;;4936687;29;20396;-95
2022/07/29 07:58:25;;;;;;;;;;;26.30;61.40;;;;;;4935980;29;19991;-96
2022/07/29 08:00:51;;;;;;;;;;;26.30;60.10;;;;;;4940388;29;19967;-95
2022/07/29 08:03:17;;;;;;;;;;;26.50;59.90;;;;;;4940113;29;20008;-94
2022/07/29 08:05:42;;;;;;;;;;;26.60;60.20;;;;;;4940642;29;19948;-96
2022/07/29 08:08:08;;;;;;;;;;;26.70;56.90;;;;;;4939925;29;20034;-96
2022/07/29 08:10:51;;;;;;;;;;;26.80;58.70;;;;;;4940066;29;20397;-95
2022/07/29 08:13:18;;;;;;;;;;;27.00;57.40;;;;;;4939883;29;20041;-94
2022/07/29 08:15:45;;;;;;;;;;;27.20;57.60;;;;;;4938611;29;20012;-95
2022/07/29 08:18:11;;;;;;;;;;;27.20;56.80;;;;;;4940165;29;20361;-96
2022/07/29 08:20:38;;;;;;;;;;;27.30;56.20;;;;;;4939731;29;19962;-95
2022/07/29 08:23:05;;;;;;;;;;;27.40;55.70;;;;;;4939737;29;19944;-95
2022/07/29 08:25:31;;;;;;;;;;;27.50;54.60;;;;;;4938532;29;20042;-95
2022/07/29 08:27:57;;;;;;;;;;;27.70;54.20;;;;;;4939684;29;20048;-95
2022/07/29 08:30:23;;;;;;;;;;;27.80;54.20;;;;;;4940085;29;20391;-95
2022/07/29 08:32:50;;;;;;;;;;;28.00;53.80;;;;;;4938275;29;20369;-95
2022/07/29 08:35:16;;;;;;;;;;;28.10;50.90;;;;;;4939601;29;20046;-95
2022/07/29 08:37:41;;;;;;;;;;;28.30;49.80;;;;;;4939220;29;19986;-95
2022/07/29 08:40:07;;;;;;;;;;;28.50;49.90;;;;;;4939522;29;19967;-95
2022/07/29 08:42:33;;;;;;;;;;;28.60;49.20;;;;;;4938191;29;19975;-96
2022/07/29 08:44:58;;;;;;;;;;;28.60;50.60;;;;;;4938091;29;20032;-94
2022/07/29 08:47:26;;;;;;;;;;;28.60;51.10;;;;;;4939270;29;20434;-95
2022/07/29 08:49:51;;;;;;;;;;;28.60;49.70;;;;;;4939624;29;19971;-94
2022/07/29 08:52:17;;;;;;;;;;;28.50;51.30;;;;;;4939222;29;20454;-95
2022/07/29 08:54:43;;;;;;;;;;;28.50;50.50;;;;;;4937957;29;20034;-95
2022/07/29 08:57:10;;;;;;;;;;;28.50;50.00;;;;;;4938871;29;19943;-95
2022/07/29 08:59:38;;;;;;;;;;;28.50;51.70;;;;;;4939022;29;19971;-95
2022/07/29 09:02:04;;;;;;;;;;;28.50;51.80;;;;;;4939118;29;19939;-95
2022/07/29 09:04:31;;;;;;;;;;;28.50;52.40;;;;;;4937747;29;19947;-95
2022/07/29 09:06:59;;;;;;;;;;;28.60;51.40;;;;;;4938943;29;19938;-95
2022/07/29 09:09:25;;;;;;;;;;;28.70;51.30;;;;;;4938674;29;19987;-96
2022/07/29 09:11:50;;;;;;;;;;;28.80;52.00;;;;;;4938873;29;19936;-95
2022/07/29 09:14:16;;;;;;;;;;;28.80;52.60;;;;;;4939147;29;19944;-96
2022/07/29 09:16:46;;;;;;;;;;;28.90;51.50;;;;;;4937518;29;19947;-96
2022/07/29 09:19:21;;;;;;;;;;;29.10;51.40;;;;;;4939250;29;20419;-96
2022/07/29 09:21:59;;;;;;;;;;;29.20;50.40;;;;;;4938684;29;19988;-95
2022/07/29 09:24:25;;;;;;;;;;;29.20;48.60;;;;;;4937309;29;19955;-95
2022/07/29 09:26:51;;;;;;;;;;;29.10;48.10;;;;;;4937391;29;19949;-95
2022/07/29 09:29:21;;;;;;;;;;;29.20;49.20;;;;;;4938858;29;19951;-96
2022/07/29 09:31:48;;;;;;;;;;;29.20;50.10;;;;;;4938523;29;19945;-96
2022/07/29 09:34:15;;;;;;;;;;;29.30;48.10;;;;;;4938563;29;19968;-96
2022/07/29 09:36:45;;;;;;;;;;;29.30;47.70;;;;;;4933225;29;20008;-95
2022/07/29 09:39:10;;;;;;;;;;;29.30;47.40;;;;;;4938636;29;20037;-95
2022/07/29 09:41:49;;;;;;;;;;;29.40;48.10;;;;;;4938347;29;20022;-95
2022/07/29 09:44:15;;;;;;;;;;;29.50;48.70;;;;;;4938587;29;20028;-96
2022/07/29 09:46:52;;;;;;;;;;;29.70;48.70;;;;;;4938091;29;20025;-96
2022/07/29 09:49:18;;;;;;;;;;;29.90;48.30;;;;;;4938805;29;20431;-96
2022/07/29 09:51:43;;;;;;;;;;;29.90;44.60;;;;;;4938157;29;19944;-96
2022/07/29 09:54:25;;;;;;;;;;;29.80;45.40;;;;;;4938452;29;19986;-95
2022/07/29 09:56:51;;;;;;;;;;;29.80;46.00;;;;;;4937952;29;19942;-96
2022/07/29 09:59:17;;;;;;;;;;;29.70;46.60;;;;;;4938232;29;20015;-96
2022/07/29 10:01:43;;;;;;;;;;;29.80;47.50;;;;;;4937978;29;19947;-96
2022/07/29 10:04:09;;;;;;;;;;;29.90;43.70;;;;;;4938155;29;20396;-95
2022/07/29 10:06:34;;;;;;;;;;;29.90;44.50;;;;;;4938129;29;19946;-96
2022/07/29 10:09:10;;;;;;;;;;;30.00;45.40;;;;;;4937877;29;20354;-96
2022/07/29 10:11:35;;;;;;;;;;;30.20;42.70;;;;;;4938121;29;20366;-96
2022/07/29 10:14:02;;;;;;;;;;;30.20;42.80;;;;;;4937748;29;19992;-96
2022/07/29 10:16:32;;;;;;;;;;;30.20;44.00;;;;;;4938311;29;19991;-96
2022/07/29 10:19:01;;;;;;;;;;;30.20;42.90;;;;;;4937623;29;19945;-96
2022/07/29 10:21:26;;;;;;;;;;;30.20;44.10;;;;;;4937158;29;20034;-96
2022/07/29 10:23:52;;;;;;;;;;;30.30;45.40;;;;;;4937465;29;19977;-96
2022/07/29 10:26:19;;;;;;;;;;;30.60;44.90;;;;;;4936307;29;19987;-96
2022/07/29 10:28:44;;;;;;;;;;;30.70;42.70;;;;;;4937824;29;19944;-96
2022/07/29 10:31:15;;;;;;;;;;;30.70;41.80;;;;;;4937553;29;20029;-96
2022/07/29 10:34:01;;;;;;;;;;;30.80;41.60;;;;;;4937770;29;19939;-96
2022/07/29 10:36:41;;;;;;;;;;;30.80;41.40;;;;;;4907812;29;20040;-96
2022/07/29 10:39:33;;;;;;;;;;;30.70;42.90;;;;;;4936039;29;19948;-96
2022/07/29 10:42:05;;;;;;;;;;;30.80;41.60;;;;;;4934490;29;19955;-96
2022/07/29 10:44:32;;;;;;;;;;;30.80;41.90;;;;;;4937503;29;19994;-96
2022/07/29 10:46:58;;;;;;;;;;;30.90;41.30;;;;;;4937463;29;20053;-96
2022/07/29 10:49:27;;;;;;;;;;;30.90;40.70;;;;;;4937417;29;19973;-96
2022/07/29 10:51:58;;;;;;;;;;;30.90;42.30;;;;;;4937140;29;20009;-96
2022/07/29 10:54:33;;;;;;;;;;;31.00;41.10;;;;;;4937628;29;19938;-96
2022/07/29 10:57:14;;;;;;;;;;;31.10;44.00;;;;;;4937032;29;19988;-96
2022/07/29 10:59:40;;;;;;;;;;;31.20;41.90;;;;;;4937219;29;19965;-96
2022/07/29 11:02:29;;;;;;;;;;;31.20;41.30;;;;;;4936978;29;20440;-96
2022/07/29 11:04:54;;;;;;;;;;;31.30;41.10;;;;;;4941686;29;19942;-96
2022/07/29 11:07:20;;;;;;;;;;;31.50;41.50;;;;;;4937161;29;19948;-96
2022/07/29 11:10:05;;;;;;;;;;;31.60;41.10;;;;;;4935631;29;20399;-96
2022/07/29 11:12:46;;;;;;;;;;;31.70;40.40;;;;;;4935439;29;20049;-96
2022/07/29 11:15:17;;;;;;;;;;;31.80;41.10;;;;;;4935520;29;19951;-96
2022/07/29 11:17:56;;;;;;;;;;;31.90;41.70;;;;;;4937353;29;19943;-96
2022/07/29 11:20:34;;;;;;;;;;;32.20;41.20;;;;;;4936707;29;19964;-96
2022/07/29 11:22:59;;;;;;;;;;;32.40;40.60;;;;;;4937292;29;19943;-96
2022/07/29 11:25:25;;;;;;;;;;;32.60;41.80;;;;;;4936905;29;20272;-96
2022/07/29 11:27:54;;;;;;;;;;;32.90;41.60;;;;;;4937063;29;20060;-96
2022/07/29 11:30:20;;;;;;;;;;;33.10;39.70;;;;;;4936514;29;19938;-96
2022/07/29 11:32:47;;;;;;;;;;;33.10;38.80;;;;;;4939313;29;19945;-96
2022/07/29 11:35:23;;;;;;;;;;;32.90;39.40;;;;;;4942852;29;19949;-96
2022/07/29 11:38:07;;;;;;;;;;;32.70;38.80;;;;;;4942909;29;19943;-96
2022/07/29 11:40:33;;;;;;;;;;;32.40;39.80;;;;;;4942702;29;19972;-95
2022/07/29 11:42:58;;;;;;;;;;;32.40;40.80;;;;;;4943440;29;19953;-95
2022/07/29 11:45:28;;;;;;;;;;;32.40;39.10;;;;;;4943172;29;19978;-94
2022/07/29 11:47:54;;;;;;;;;;;32.30;39.60;;;;;;4942294;29;20030;-96
2022/07/29 11:50:30;;;;;;;;;;;32.30;39.00;;;;;;4942682;29;19944;-96
2022/07/29 11:52:56;;;;;;;;;;;32.30;38.70;;;;;;4943105;29;19989;-96
2022/07/29 11:55:22;;;;;;;;;;;32.50;38.60;;;;;;4942779;29;19947;-96
2022/07/29 11:57:52;;;;;;;;;;;32.80;38.00;;;;;;4941464;29;19997;-96
2022/07/29 12:00:38;;;;;;;;;;;33.20;39.10;;;;;;4942627;29;20481;-96
2022/07/29 12:03:10;;;;;;;;;;;33.60;39.00;;;;;;4942776;29;19952;-96
2022/07/29 12:05:40;;;;;;;;;;;34.10;36.90;;;;;;4942706;29;19940;-96
2022/07/29 12:08:07;;;;;;;;;;;34.30;36.10;;;;;;4942631;29;19944;-96
2022/07/29 12:10:33;;;;;;;;;;;34.30;36.10;;;;;;4942561;29;20034;-96
2022/07/29 12:12:59;;;;;;;;;;;34.30;36.00;;;;;;4942611;29;19985;-96
2022/07/29 12:15:25;;;;;;;;;;;34.40;36.20;;;;;;4942506;29;20002;-96
2022/07/29 12:17:51;;;;;;;;;;;35.10;36.80;;;;;;4942561;29;20414;-96
2022/07/29 12:20:24;;;;;;;;;;;35.50;34.00;;;;;;4942645;29;19961;-96
2022/07/29 12:22:50;;;;;;;;;;;34.80;33.90;;;;;;4942913;29;20316;-96
2022/07/29 12:25:17;;;;;;;;;;;33.80;35.60;;;;;;4941179;29;20029;-96
2022/07/29 12:27:45;;;;;;;;;;;33.80;36.10;;;;;;4942770;29;19950;-95
2022/07/29 12:30:15;;;;;;;;;;;33.90;35.30;;;;;;4942501;29;19993;-95
2022/07/29 12:32:46;;;;;;;;;;;34.10;35.70;;;;;;4942308;29;20032;-96
2022/07/29 12:35:13;;;;;;;;;;;34.30;36.50;;;;;;4942680;29;19948;-96
2022/07/29 12:37:39;;;;;;;;;;;34.80;34.50;;;;;;4942303;29;19941;-96
2022/07/29 12:40:05;;;;;;;;;;;34.40;34.80;;;;;;4942876;29;19957;-96
2022/07/29 12:42:31;;;;;;;;;;;34.70;35.00;;;;;;4941114;29;19948;-96
2022/07/29 12:44:57;;;;;;;;;;;35.50;36.90;;;;;;4939381;29;19945;-96
2022/07/29 12:47:23;;;;;;;;;;;35.80;35.40;;;;;;4936747;23;20018;-96
2022/07/29 12:49:49;;;;;;;;;;;36.10;33.40;;;;;;4920283;29;20036;-96
2022/07/29 12:52:31;;;;;;;;;;;36.40;33.00;;;;;;4920593;29;20011;-96
2022/07/29 12:54:57;;;;;;;;;;;36.70;32.70;;;;;;4920235;29;20393;-96
2022/07/29 12:57:23;;;;;;;;;;;36.20;32.50;;;;;;4919930;29;19948;-96
2022/07/29 12:59:59;;;;;;;;;;;35.50;33.10;;;;;;4919758;29;20387;-96
2022/07/29 13:02:25;;;;;;;;;;;35.40;34.00;;;;;;4919241;29;19946;-96
2022/07/29 13:04:57;;;;;;;;;;;36.10;32.00;;;;;;4918886;29;20451;-96
2022/07/29 13:07:24;;;;;;;;;;;37.20;30.80;;;;;;4920279;29;20003;-95
2022/07/29 13:09:50;;;;;;;;;;;37.40;30.10;;;;;;4918995;29;20286;-96
2022/07/29 13:12:15;;;;;;;;;;;38.00;28.40;;;;;;4919752;29;19952;-96
2022/07/29 13:14:45;;;;;;;;;;;38.20;28.80;;;;;;4919912;29;19943;-95
2022/07/29 13:17:12;;;;;;;;;;;38.90;28.00;;;;;;4919742;29;20019;-96
2022/07/29 13:19:40;;;;;;;;;;;39.10;27.80;;;;;;4919669;29;20423;-96
2022/07/29 13:22:06;;;;;;;;;;;38.90;28.20;;;;;;4919746;29;19979;-96
2022/07/29 13:24:32;;;;;;;;;;;39.60;27.40;;;;;;4921854;29;20025;-96
2022/07/29 13:26:57;;;;;;;;;;;39.50;27.20;;;;;;4926683;29;19970;-96
2022/07/29 13:29:23;;;;;;;;;;;38.80;26.80;;;;;;4928530;29;19951;-96
2022/07/29 13:31:49;;;;;;;;;;;39.10;26.90;;;;;;4928369;29;20394;-96
2022/07/29 13:34:14;;;;;;;;;;;39.30;26.90;;;;;;4927009;29;20039;-96
2022/07/29 13:36:40;;;;;;;;;;;39.80;26.90;;;;;;4923937;29;19958;-96
2022/07/29 13:39:06;;;;;;;;;;;40.60;26.20;;;;;;4930426;29;19941;-96
2022/07/29 13:41:31;;;;;;;;;;;41.30;25.60;;;;;;4926524;29;19971;-96
2022/07/29 13:43:57;;;;;;;;;;;41.50;24.30;;;;;;4925827;29;19943;-96
2022/07/29 13:46:22;;;;;;;;;;;41.50;24.70;;;;;;4925439;29;19971;-96
2022/07/29 13:48:48;;;;;;;;;;;42.30;24.40;;;;;;4927834;29;20014;-96
2022/07/29 13:51:14;;;;;;;;;;;42.00;23.80;;;;;;4926248;29;19948;-96
2022/07/29 13:53:39;;;;;;;;;;;40.50;25.60;;;;;;4923208;29;19947;-96
2022/07/29 13:56:07;;;;;;;;;;;39.80;26.30;;;;;;4919519;29;19946;-96
2022/07/29 13:58:33;;;;;;;;;;;40.90;25.10;;;;;;4918886;29;20456;-96
2022/07/29 14:00:59;;;;;;;;;;;41.70;24.60;;;;;;4918934;29;20011;-96
2022/07/29 14:03:24;;;;;;;;;;;42.00;24.60;;;;;;4919048;29;19948;-96
2022/07/29 14:05:50;;;;;;;;;;;41.90;24.80;;;;;;4919401;29;19993;-96
2022/07/29 14:08:16;;;;;;;;;;;42.30;23.90;;;;;;4919195;29;19945;-96
2022/07/29 14:10:41;;;;;;;;;;;42.60;24.90;;;;;;4918872;29;19953;-96
2022/07/29 14:13:07;;;;;;;;;;;42.70;23.90;;;;;;4919000;29;20014;-96
2022/07/29 14:15:32;;;;;;;;;;;42.30;24.60;;;;;;4933420;29;20010;-95
2022/07/29 14:17:58;;;;;;;;;;;42.30;24.70;;;;;;4919195;29;19945;-95
2022/07/29 14:20:23;;;;;;;;;;;40.80;26.10;;;;;;4918691;29;19965;-96
2022/07/29 14:22:49;;;;;;;;;;;40.50;26.80;;;;;;4919008;29;20011;-96